Time;durP1;ratioP1;P1;durP2;ratioP2;P2;SDS_P1;SDS_P2;PMS_P1;PMS_P2;Temp;Humidity;BMP_temperature;BMP_pressure;BME280_temperature;BME280_humidity;BME280_pressure;Samples;Min_cycle;Max_cycle;Signal;HPM_P1;HPM_P2
2024/02/25 00:00:03;;;;;;;2.15;0.70;;;;;;;18.44;40.83;99894.16;5000199;28;20506;-70
2024/02/25 00:02:30;;;;;;;3.08;0.80;;;;;;;18.38;40.80;99884.22;4999626;28;20488;-70
2024/02/25 00:04:56;;;;;;;1.98;0.70;;;;;;;18.50;40.69;99903.31;5001398;28;20030;-70
2024/02/25 00:07:21;;;;;;;1.92;0.70;;;;;;;18.41;40.68;99896.28;5000870;28;20302;-70
2024/02/25 00:09:46;;;;;;;1.67;0.70;;;;;;;18.35;40.50;99884.50;5000771;28;20124;-70
2024/02/25 00:12:12;;;;;;;2.43;0.80;;;;;;;18.44;40.54;99901.25;5000306;28;20029;-70
2024/02/25 00:14:37;;;;;;;2.20;0.88;;;;;;;18.46;40.45;99908.03;4983286;28;20804;-70
2024/02/25 00:17:02;;;;;;;1.77;0.80;;;;;;;18.45;40.52;99900.25;5000260;28;20627;-71
2024/02/25 00:19:29;;;;;;;2.05;0.80;;;;;;;18.44;40.52;99912.63;5000562;28;20042;-71
2024/02/25 00:21:55;;;;;;;1.50;0.50;;;;;;;18.33;40.35;99894.38;4982109;28;20081;-70
2024/02/25 00:24:22;;;;;;;1.85;0.90;;;;;;;18.38;40.12;99902.69;5000586;28;20044;-71
2024/02/25 00:26:47;;;;;;;1.27;0.57;;;;;;;18.43;40.19;99918.88;5000737;28;20030;-70
2024/02/25 00:29:15;;;;;;;1.33;0.60;;;;;;;18.31;40.19;99899.00;5000076;28;20037;-71
2024/02/25 00:31:41;;;;;;;1.88;0.75;;;;;;;18.28;40.16;99901.94;4997716;28;20034;-71
2024/02/25 00:34:06;;;;;;;1.67;0.63;;;;;;;18.36;40.23;99915.19;4999860;28;20562;-71
2024/02/25 00:36:32;;;;;;;1.08;0.50;;;;;;;18.27;40.29;99897.63;5000742;28;20458;-71
2024/02/25 00:38:57;;;;;;;1.38;0.60;;;;;;;18.36;40.36;99914.34;4999975;28;20034;-71
2024/02/25 00:41:23;;;;;;;2.35;0.70;;;;;;;18.29;40.23;99914.97;4999688;28;20041;-70
2024/02/25 00:43:48;;;;;;;2.03;0.80;;;;;;;18.21;40.46;99892.94;5001229;28;20554;-71
2024/02/25 00:46:13;;;;;;;1.20;0.60;;;;;;;18.34;40.40;99925.06;5000421;28;20060;-71
2024/02/25 00:48:39;;;;;;;1.77;0.75;;;;;;;18.32;40.29;99924.38;5000343;28;20483;-70
2024/02/25 00:51:04;;;;;;;1.58;0.60;;;;;;;18.18;40.34;99901.13;5000390;28;20526;-70
2024/02/25 00:53:31;;;;;;;1.67;0.65;;;;;;;18.25;40.20;99916.22;4982878;28;20556;-70
2024/02/25 00:55:56;;;;;;;1.95;0.73;;;;;;;18.28;40.25;99921.22;4999679;28;20042;-70
2024/02/25 00:58:22;;;;;;;1.40;0.60;;;;;;;18.30;40.31;99928.97;5000346;28;20483;-70
2024/02/25 01:00:48;;;;;;;1.75;0.75;;;;;;;18.16;40.41;99911.00;5000296;28;20070;-70
2024/02/25 01:03:14;;;;;;;1.77;0.70;;;;;;;18.08;40.21;99899.38;4996640;28;20045;-71
2024/02/25 01:05:39;;;;;;;1.60;0.63;;;;;;;18.23;40.07;99922.59;5000269;28;20034;-70
2024/02/25 01:08:05;;;;;;;1.30;0.60;;;;;;;18.14;40.11;99913.78;5000153;28;20152;-70
2024/02/25 01:10:30;;;;;;;1.42;0.63;;;;;;;18.10;40.23;99908.00;4999667;28;20294;-71
2024/02/25 01:12:55;;;;;;;1.30;0.52;;;;;;;18.05;40.31;99894.41;4999790;28;20065;-71
2024/02/25 01:15:21;;;;;;;1.85;0.70;;;;;;;18.14;40.22;99919.06;4999819;28;20033;-71
2024/02/25 01:17:46;;;;;;;2.45;0.70;;;;;;;18.08;40.20;99901.19;4981478;28;20385;-71
2024/02/25 01:20:11;;;;;;;1.70;0.60;;;;;;;18.13;40.18;99918.25;5000477;28;20053;-71
2024/02/25 01:22:36;;;;;;;1.27;0.52;;;;;;;18.21;39.83;99924.56;4982777;28;20605;-71
2024/02/25 01:25:03;;;;;;;2.15;0.80;;;;;;;18.21;39.94;99924.56;4998389;28;20030;-70
2024/02/25 01:27:28;;;;;;;1.58;0.73;;;;;;;17.98;40.10;99895.97;4982412;28;20038;-71
2024/02/25 01:29:53;;;;;;;1.73;0.60;;;;;;;18.15;40.20;99911.97;4999499;28;20030;-70
2024/02/25 01:32:19;;;;;;;1.35;0.63;;;;;;;18.06;40.16;99897.88;4999038;28;20459;-70
2024/02/25 01:34:44;;;;;;;1.23;0.63;;;;;;;18.04;40.24;99898.03;4999153;28;20033;-70
2024/02/25 01:37:10;;;;;;;0.82;0.50;;;;;;;18.10;40.05;99910.63;4999801;28;20498;-71
2024/02/25 01:39:35;;;;;;;1.67;0.70;;;;;;;18.00;40.24;99891.38;4999711;28;20025;-70
2024/02/25 01:42:00;;;;;;;1.40;0.68;;;;;;;18.15;40.31;99914.59;4999297;28;20068;-70
2024/02/25 01:44:26;;;;;;;0.70;0.40;;;;;;;18.12;40.09;99908.66;4999497;28;20029;-70
2024/02/25 01:46:52;;;;;;;0.95;0.52;;;;;;;18.00;40.47;99883.47;4998840;28;20033;-70
2024/02/25 01:49:18;;;;;;;2.13;0.60;;;;;;;18.05;40.02;99890.94;4999879;28;20104;-71
2024/02/25 01:51:44;;;;;;;1.27;0.50;;;;;;;18.02;40.17;99885.97;4998073;28;20428;-71
2024/02/25 01:54:11;;;;;;;1.23;0.60;;;;;;;18.04;39.97;99892.75;4999611;28;20464;-70
2024/02/25 01:56:38;;;;;;;1.25;0.75;;;;;;;18.01;39.80;99881.66;4997748;28;20120;-70
2024/02/25 01:59:03;;;;;;;1.25;0.60;;;;;;;18.08;39.84;99899.38;4998306;28;20144;-70
2024/02/25 02:01:33;;;;;;;1.77;0.70;;;;;;;17.99;40.00;99884.47;4999691;28;20476;-71
2024/02/25 02:03:58;;;;;;;1.38;0.70;;;;;;;18.04;40.16;99891.91;4997819;28;20073;-70
2024/02/25 02:06:24;;;;;;;1.17;0.50;;;;;;;17.92;40.06;99876.28;4998815;28;20436;-70
2024/02/25 02:08:49;;;;;;;2.15;0.70;;;;;;;17.93;39.82;99874.50;4981466;28;20029;-71
2024/02/25 02:11:20;;;;;;;1.50;0.50;;;;;;;18.08;40.04;99893.28;4981606;28;20030;-71
2024/02/25 02:13:46;;;;;;;1.45;0.50;;;;;;;17.93;40.16;99870.06;4998429;28;20201;-70
2024/02/25 02:16:13;;;;;;;1.20;0.50;;;;;;;17.94;40.31;99873.50;4998679;28;20033;-70
2024/02/25 02:18:42;;;;;;;0.90;0.50;;;;;;;18.00;40.32;99886.09;4998811;28;20080;-70
2024/02/25 02:21:15;;;;;;;0.60;0.40;;;;;;;17.90;40.20;99869.53;4998542;28;20037;-70
2024/02/25 02:23:40;;;;;;;1.40;0.50;;;;;;;17.96;40.49;99874.22;4998600;28;20922;-70
2024/02/25 02:26:06;;;;;;;1.42;0.65;;;;;;;17.97;40.16;99869.75;4999281;28;20739;-71
2024/02/25 02:28:31;;;;;;;0.82;0.40;;;;;;;17.92;40.12;99870.19;4997772;28;20048;-71
2024/02/25 02:30:56;;;;;;;1.75;0.60;;;;;;;17.89;40.39;99865.22;4998559;28;20088;-70
2024/02/25 02:33:22;;;;;;;1.83;0.50;;;;;;;17.98;40.29;99874.88;4998273;28;20290;-70
2024/02/25 02:35:48;;;;;;;1.08;0.57;;;;;;;17.88;40.39;99863.53;4979798;28;20791;-70
2024/02/25 02:38:14;;;;;;;0.82;0.50;;;;;;;18.03;40.35;99890.25;4999434;28;20048;-70
2024/02/25 02:40:39;;;;;;;0.75;0.50;;;;;;;17.99;40.38;99876.56;4981349;28;20037;-71
2024/02/25 02:43:04;;;;;;;1.52;0.60;;;;;;;17.90;40.26;99872.97;4998697;28;20049;-71
2024/02/25 02:45:30;;;;;;;1.02;0.50;;;;;;;17.94;40.01;99879.63;4999274;28;20033;-70
2024/02/25 02:47:56;;;;;;;1.20;0.63;;;;;;;17.86;40.19;99876.00;4997665;28;20034;-70
2024/02/25 02:50:21;;;;;;;0.65;0.40;;;;;;;17.86;40.27;99866.28;4980665;28;20135;-70
2024/02/25 02:52:46;;;;;;;1.75;0.52;;;;;;;17.77;40.17;99857.47;4998845;28;20029;-71
2024/02/25 02:55:12;;;;;;;1.13;0.55;;;;;;;17.86;40.13;99878.66;4998415;28;20062;-70
2024/02/25 02:57:37;;;;;;;0.90;0.40;;;;;;;17.86;40.14;99871.56;4999089;28;20034;-71
2024/02/25 03:00:02;;;;;;;0.93;0.40;;;;;;;17.89;40.16;99875.75;4998759;28;20468;-70
2024/02/25 03:02:28;;;;;;;1.35;0.45;;;;;;;17.95;40.34;99888.34;4996854;28;20038;-70
2024/02/25 03:04:53;;;;;;;1.48;0.50;;;;;;;17.87;40.22;99875.88;4998407;28;20080;-70
2024/02/25 03:07:18;;;;;;;0.60;0.40;;;;;;;17.80;40.18;99869.53;4999227;28;20140;-70
2024/02/25 03:09:44;;;;;;;0.85;0.50;;;;;;;17.82;40.08;99867.56;5001825;28;20450;-71
2024/02/25 03:12:09;;;;;;;0.70;0.50;;;;;;;17.82;40.32;99867.56;5002135;28;20057;-71
2024/02/25 03:14:36;;;;;;;0.82;0.40;;;;;;;17.94;40.38;99881.41;5002096;28;20881;-70
2024/02/25 03:17:01;;;;;;;0.73;0.38;;;;;;;17.76;40.34;99866.34;5001426;28;20220;-71
2024/02/25 03:19:26;;;;;;;1.10;0.50;;;;;;;17.92;40.31;99884.19;5001960;28;20542;-70
2024/02/25 03:21:52;;;;;;;1.15;0.40;;;;;;;17.90;40.32;99885.34;5002253;28;20135;-71
2024/02/25 03:24:17;;;;;;;1.65;0.40;;;;;;;17.82;40.32;99870.22;5001301;28;20084;-70
2024/02/25 03:26:47;;;;;;;1.25;0.40;;;;;;;17.86;40.26;99873.38;5002176;28;20030;-70
2024/02/25 03:29:12;;;;;;;2.10;0.47;;;;;;;17.70;40.04;99853.75;5001493;28;20038;-71
2024/02/25 03:31:37;;;;;;;0.73;0.43;;;;;;;17.74;40.29;99863.03;5001228;28;20038;-70
2024/02/25 03:34:03;;;;;;;0.65;0.45;;;;;;;17.71;40.20;99865.97;5002115;28;20542;-70
2024/02/25 03:36:28;;;;;;;1.95;0.50;;;;;;;17.80;40.14;99880.09;5001647;28;20042;-71
2024/02/25 03:38:53;;;;;;;1.35;0.50;;;;;;;17.89;40.07;99894.22;4983483;28;20551;-71
2024/02/25 03:41:19;;;;;;;0.73;0.50;;;;;;;17.89;40.26;99889.75;5001981;28;20088;-70
2024/02/25 03:43:44;;;;;;;0.52;0.38;;;;;;;17.78;40.17;99871.47;5002248;28;20040;-71
2024/02/25 03:46:09;;;;;;;0.32;0.30;;;;;;;17.74;40.49;99863.03;5000635;28;20038;-71
2024/02/25 03:48:34;;;;;;;0.50;0.30;;;;;;;17.75;40.37;99867.34;5001040;28;20423;-70
2024/02/25 03:51:00;;;;;;;1.15;0.50;;;;;;;17.85;40.26;99888.38;5000793;28;20083;-71
2024/02/25 03:53:25;;;;;;;0.60;0.30;;;;;;;17.83;40.30;99884.22;5001517;28;20033;-71
2024/02/25 03:55:50;;;;;;;0.45;0.30;;;;;;;17.80;40.12;99873.97;5001264;28;20327;-71
2024/02/25 03:58:16;;;;;;;0.73;0.35;;;;;;;17.72;40.47;99872.91;5001057;28;20403;-70
2024/02/25 04:00:42;;;;;;;0.60;0.40;;;;;;;17.80;40.61;99884.50;5001064;28;20274;-71
2024/02/25 04:03:07;;;;;;;0.75;0.40;;;;;;;17.84;40.33;99886.69;4999068;28;20597;-70
2024/02/25 04:05:32;;;;;;;0.60;0.40;;;;;;;17.77;40.39;99883.81;5001034;28;20042;-70
2024/02/25 04:07:58;;;;;;;0.75;0.40;;;;;;;17.84;40.64;99893.78;5000935;28;20549;-70
2024/02/25 04:10:25;;;;;;;0.57;0.40;;;;;;;17.80;40.31;99888.00;4983492;28;20034;-70
2024/02/25 04:12:50;;;;;;;0.38;0.32;;;;;;;17.72;40.24;99874.69;5000322;28;20112;-70
2024/02/25 04:15:16;;;;;;;0.70;0.32;;;;;;;17.70;40.51;99879.28;5001676;28;20125;-70
2024/02/25 04:17:41;;;;;;;0.55;0.40;;;;;;;17.64;40.31;99864.03;5001150;28;20414;-71
2024/02/25 04:20:07;;;;;;;1.20;0.60;;;;;;;17.76;40.38;99897.97;4998465;28;20454;-71
2024/02/25 04:22:33;;;;;;;1.52;0.40;;;;;;;17.71;40.51;99887.03;5000765;28;20061;-70
2024/02/25 04:24:59;;;;;;;1.25;0.50;;;;;;;17.81;40.44;99899.34;5001250;28;20531;-70
2024/02/25 04:27:25;;;;;;;0.60;0.32;;;;;;;17.79;40.61;99902.13;4982759;28;20037;-70
2024/02/25 04:29:50;;;;;;;0.63;0.40;;;;;;;17.66;40.22;99877.94;4983069;28;20113;-70
2024/02/25 04:32:15;;;;;;;1.55;0.40;;;;;;;17.74;40.69;99896.47;5001036;28;20117;-70
2024/02/25 04:34:41;;;;;;;0.52;0.30;;;;;;;17.80;40.60;99902.94;4999461;28;20376;-70
2024/02/25 04:37:06;;;;;;;0.43;0.32;;;;;;;17.74;40.43;99899.09;5001041;28;20026;-70
2024/02/25 04:39:32;;;;;;;0.93;0.40;;;;;;;17.77;40.54;99906.72;5000543;28;20388;-71
2024/02/25 04:41:58;;;;;;;1.08;0.50;;;;;;;17.64;40.46;99879.84;4999804;28;20034;-70
2024/02/25 04:44:26;;;;;;;0.88;0.40;;;;;;;17.64;40.51;99888.59;5001019;28;20034;-71
2024/02/25 04:46:51;;;;;;;1.10;0.40;;;;;;;17.59;40.71;99875.88;5000456;28;20092;-71
2024/02/25 04:49:16;;;;;;;0.80;0.40;;;;;;;17.60;40.46;99881.97;4999801;28;20038;-71
2024/02/25 04:51:45;;;;;;;0.77;0.40;;;;;;;17.64;40.44;99887.75;5000072;28;20033;-71
2024/02/25 04:54:13;;;;;;;0.30;0.30;;;;;;;17.75;40.56;99912.13;5000777;28;20033;-70
2024/02/25 04:56:42;;;;;;;1.20;0.60;;;;;;;17.73;40.63;99902.72;4998705;28;20033;-70
2024/02/25 04:59:07;;;;;;;0.52;0.40;;;;;;;17.69;40.73;99891.63;5000428;28;20025;-70
2024/02/25 05:01:32;;;;;;;0.75;0.40;;;;;;;17.72;40.71;99904.53;4999394;28;20823;-70
2024/02/25 05:03:58;;;;;;;0.68;0.30;;;;;;;17.72;40.70;99904.53;4997951;28;20049;-70
2024/02/25 05:06:23;;;;;;;0.77;0.40;;;;;;;17.62;40.55;99887.91;4999471;28;20482;-70
2024/02/25 05:08:48;;;;;;;0.75;0.40;;;;;;;17.57;40.54;99882.25;4998922;28;20038;-70
2024/02/25 05:11:14;;;;;;;0.40;0.30;;;;;;;17.65;40.73;99898.16;5000230;28;20033;-70
2024/02/25 05:13:41;;;;;;;0.98;0.43;;;;;;;17.59;40.56;99889.03;5000573;28;20030;-70
2024/02/25 05:16:07;;;;;;;0.65;0.40;;;;;;;17.53;40.54;99883.50;4999322;28;20033;-70
2024/02/25 05:18:33;;;;;;;0.82;0.32;;;;;;;17.61;40.68;99891.53;4982440;28;20119;-71
2024/02/25 05:21:00;;;;;;;1.05;0.50;;;;;;;17.66;40.40;99901.63;4999749;28;20042;-70
2024/02/25 05:23:25;;;;;;;0.80;0.40;;;;;;;17.67;40.87;99911.19;4999487;28;20029;-71
2024/02/25 05:25:51;;;;;;;1.17;0.40;;;;;;;17.59;40.76;99904.00;4999378;28;20048;-71
2024/02/25 05:28:16;;;;;;;0.88;0.50;;;;;;;17.62;40.72;99908.97;5000241;28;20044;-70
2024/02/25 05:30:41;;;;;;;1.50;0.57;;;;;;;17.60;40.72;99905.66;4998424;28;20077;-71
2024/02/25 05:33:07;;;;;;;0.35;0.28;;;;;;;17.64;40.87;99916.75;4999919;28;20057;-70
2024/02/25 05:35:32;;;;;;;1.90;0.60;;;;;;;17.62;40.55;99916.06;4999358;28;20030;-70
2024/02/25 05:37:57;;;;;;;0.88;0.40;;;;;;;17.63;40.72;99917.72;4998980;28;20499;-70
2024/02/25 05:40:23;;;;;;;0.60;0.40;;;;;;;17.63;41.21;99920.38;4999852;28;20034;-71
2024/02/25 05:42:48;;;;;;;0.65;0.40;;;;;;;17.65;40.95;99919.22;4999986;28;20061;-70
2024/02/25 05:45:13;;;;;;;1.33;0.40;;;;;;;17.66;40.78;99923.53;4998441;28;20794;-71
2024/02/25 05:47:38;;;;;;;0.60;0.45;;;;;;;17.55;40.88;99902.63;4998280;28;20113;-71
2024/02/25 05:50:04;;;;;;;0.82;0.40;;;;;;;17.56;40.94;99909.56;4998918;28;20132;-71
2024/02/25 05:52:29;;;;;;;0.50;0.40;;;;;;;17.53;40.99;99904.56;4980506;28;20034;-71
2024/02/25 05:54:56;;;;;;;0.82;0.38;;;;;;;17.56;40.81;99912.19;4981451;28;20041;-70
2024/02/25 05:57:22;;;;;;;0.40;0.30;;;;;;;17.61;41.15;99917.88;4998897;28;20120;-71
2024/02/25 05:59:48;;;;;;;1.17;0.50;;;;;;;17.59;40.97;99914.53;4998382;28;20026;-70
2024/02/25 06:02:13;;;;;;;2.28;0.40;;;;;;;17.50;41.15;99897.81;4980258;28;20387;-70
2024/02/25 06:04:38;;;;;;;0.95;0.40;;;;;;;17.49;41.20;99904.03;4998868;28;20042;-70
2024/02/25 06:07:04;;;;;;;0.30;0.30;;;;;;;17.62;41.35;99924.78;4997483;28;20478;-71
2024/02/25 06:09:29;;;;;;;1.30;0.50;;;;;;;17.72;41.55;99933.50;4997911;28;20502;-71
2024/02/25 06:11:54;;;;;;;0.68;0.30;;;;;;;17.75;41.23;99946.41;4998193;28;20383;-70
2024/02/25 06:14:20;;;;;;;1.02;0.47;;;;;;;17.77;41.64;99935.72;4998241;28;20034;-71
2024/02/25 06:16:45;;;;;;;0.90;0.40;;;;;;;17.78;41.23;99932.09;4998221;28;20064;-71
2024/02/25 06:19:10;;;;;;;0.60;0.30;;;;;;;17.85;41.86;99946.38;4997537;28;20463;-71
2024/02/25 06:21:36;;;;;;;0.50;0.38;;;;;;;17.86;41.52;99941.91;4998385;28;20097;-71
2024/02/25 06:24:03;;;;;;;0.95;0.40;;;;;;;17.82;41.24;99932.66;4998935;28;20479;-71
2024/02/25 06:26:28;;;;;;;0.65;0.40;;;;;;;17.94;41.58;99952.59;4996933;28;20072;-71
2024/02/25 06:28:54;;;;;;;0.47;0.30;;;;;;;17.95;41.48;99954.25;4997589;28;20120;-70
2024/02/25 06:31:19;;;;;;;0.85;0.40;;;;;;;17.79;41.62;99922.41;4997794;28;20384;-70
2024/02/25 06:33:44;;;;;;;0.88;0.50;;;;;;;17.93;41.35;99946.50;4998462;28;20030;-71
2024/02/25 06:36:20;;;;;;;0.38;0.30;;;;;;;17.91;41.55;99934.41;4998482;28;20026;-71
2024/02/25 06:38:46;;;;;;;0.75;0.40;;;;;;;17.99;41.31;99946.88;4997798;28;20972;-71
2024/02/25 06:41:22;;;;;;;0.65;0.40;;;;;;;18.05;41.29;99952.41;4997929;28;20173;-71
2024/02/25 06:43:49;;;;;;;0.75;0.40;;;;;;;18.01;41.31;99947.56;5001078;28;20035;-71
2024/02/25 06:46:14;;;;;;;0.52;0.30;;;;;;;17.93;41.30;99930.69;5002486;28;20045;-71
2024/02/25 06:48:40;;;;;;;1.08;0.40;;;;;;;17.97;41.12;99933.84;5001571;28;20030;-70
2024/02/25 06:51:05;;;;;;;0.77;0.43;;;;;;;17.99;41.23;99939.81;5002055;28;20144;-71
2024/02/25 06:53:34;;;;;;;0.60;0.40;;;;;;;18.06;41.28;99955.88;5001214;28;20037;-71
2024/02/25 06:56:00;;;;;;;0.55;0.30;;;;;;;18.12;41.10;99965.84;4999724;28;20038;-70
2024/02/25 06:58:26;;;;;;;0.75;0.30;;;;;;;18.09;41.23;99958.22;5002734;28;20041;-71
2024/02/25 07:00:51;;;;;;;1.60;0.30;;;;;;;18.13;41.49;99968.34;5001987;28;20407;-71
2024/02/25 07:03:16;;;;;;;0.55;0.30;;;;;;;18.12;41.36;99968.50;5000013;28;20037;-71
2024/02/25 07:05:45;;;;;;;0.60;0.30;;;;;;;18.13;41.33;99970.13;5002307;28;20097;-71
2024/02/25 07:08:10;;;;;;;0.95;0.38;;;;;;;17.99;41.29;99952.16;5001924;28;20030;-70
2024/02/25 07:10:36;;;;;;;1.00;0.38;;;;;;;18.18;41.46;99980.25;5002271;28;20099;-70
2024/02/25 07:13:01;;;;;;;0.50;0.30;;;;;;;18.12;41.24;99971.94;5002012;28;20034;-70
2024/02/25 07:15:27;;;;;;;0.73;0.40;;;;;;;18.15;41.43;99980.53;5002104;28;20451;-71
2024/02/25 07:17:53;;;;;;;0.75;0.40;;;;;;;18.17;41.15;99982.06;5002112;28;20053;-71
2024/02/25 07:20:19;;;;;;;1.90;0.60;;;;;;;18.04;41.26;99963.09;5000601;28;20045;-71
2024/02/25 07:22:45;;;;;;;0.85;0.50;;;;;;;18.06;41.40;99963.78;5000359;28;20034;-70
2024/02/25 07:25:10;;;;;;;0.63;0.30;;;;;;;18.18;41.40;99988.16;4981704;28;20036;-71
2024/02/25 07:27:36;;;;;;;1.30;0.50;;;;;;;18.11;41.24;99977.38;5001062;28;20101;-70
2024/02/25 07:30:01;;;;;;;1.00;0.47;;;;;;;18.02;41.51;99965.88;4999001;28;20044;-70
2024/02/25 07:32:26;;;;;;;0.95;0.40;;;;;;;18.16;41.59;99984.84;5000219;28;20539;-71
2024/02/25 07:34:52;;;;;;;0.53;0.37;;;;;;;18.03;41.52;99962.28;5001374;28;20443;-70
2024/02/25 07:37:17;;;;;;;0.85;0.40;;;;;;;18.15;41.42;99989.31;4983562;28;21068;-70
2024/02/25 07:39:42;;;;;;;1.23;0.55;;;;;;;18.13;41.64;99988.59;5001605;28;20082;-71
2024/02/25 07:42:08;;;;;;;0.55;0.40;;;;;;;18.10;41.71;99986.25;5000611;28;20760;-72
2024/02/25 07:44:33;;;;;;;1.23;0.50;;;;;;;18.14;41.34;99990.25;5000484;28;20117;-70
2024/02/25 07:46:58;;;;;;;2.77;0.60;;;;;;;18.04;41.10;99971.84;5001660;28;20876;-71
2024/02/25 07:49:23;;;;;;;0.43;0.30;;;;;;;18.09;41.61;99984.59;5001833;28;20265;-70
2024/02/25 07:51:49;;;;;;;1.10;0.55;;;;;;;18.08;41.37;99989.03;5000520;28;20300;-71
2024/02/25 07:54:14;;;;;;;0.68;0.43;;;;;;;18.05;41.39;99981.41;5000873;28;20488;-72
2024/02/25 07:56:39;;;;;;;1.33;0.50;;;;;;;18.07;41.45;99992.66;5001334;28;20285;-70
2024/02/25 07:59:05;;;;;;;0.80;0.50;;;;;;;18.13;41.81;100000.00;5001112;28;20072;-71
2024/02/25 08:01:33;;;;;;;1.52;0.50;;;;;;;18.07;41.73;99987.38;5001519;28;20042;-71
2024/02/25 08:03:59;;;;;;;1.17;0.50;;;;;;;18.12;41.70;100000.94;4999855;28;20116;-70
2024/02/25 08:06:28;;;;;;;1.05;0.40;;;;;;;18.07;42.01;99992.66;5000389;28;20148;-70
2024/02/25 08:08:56;;;;;;;2.20;0.50;;;;;;;18.18;42.10;100009.25;5001045;28;20084;-70
2024/02/25 08:11:21;;;;;;;2.63;0.55;;;;;;;18.15;42.52;99997.22;5000596;28;20069;-71
2024/02/25 08:13:46;;;;;;;1.15;0.40;;;;;;;18.20;42.35;100002.03;5001221;28;20065;-71
2024/02/25 08:16:12;;;;;;;1.23;0.40;;;;;;;18.11;42.27;99991.38;5001189;28;20699;-71
2024/02/25 08:18:42;;;;;;;1.70;0.45;;;;;;;18.11;42.55;99994.00;5000362;28;20283;-71
2024/02/25 08:21:07;;;;;;;2.25;0.50;;;;;;;18.20;42.64;100005.50;5001795;28;20037;-71
2024/02/25 08:23:32;;;;;;;1.35;0.50;;;;;;;18.21;42.83;100008.97;5001342;28;20038;-70
2024/02/25 08:25:58;;;;;;;1.93;0.50;;;;;;;18.17;42.57;100003.16;5000468;28;20061;-69
2024/02/25 08:28:25;;;;;;;0.73;0.40;;;;;;;18.26;43.07;100019.91;5001061;28;20271;-71
2024/02/25 08:30:50;;;;;;;1.02;0.50;;;;;;;18.21;43.00;100006.31;5000324;28;20038;-71
2024/02/25 08:33:16;;;;;;;3.15;0.50;;;;;;;18.27;43.14;100011.84;5000593;28;20038;-72
2024/02/25 08:35:41;;;;;;;1.77;0.68;;;;;;;18.19;42.93;100006.47;4998550;28;20096;-72
2024/02/25 08:38:06;;;;;;;1.65;0.60;;;;;;;18.11;42.78;99998.47;4982478;28;20092;-73
2024/02/25 08:40:32;;;;;;;1.63;0.60;;;;;;;18.17;42.85;100002.34;5000194;28;20492;-71
2024/02/25 08:42:57;;;;;;;2.72;0.60;;;;;;;18.19;43.20;100009.09;5000219;28;20031;-72
2024/02/25 08:45:23;;;;;;;2.28;0.80;;;;;;;18.28;43.37;100015.34;4983366;28;20041;-70
2024/02/25 08:47:49;;;;;;;4.50;1.33;;;;;;;18.25;44.30;100002.44;4981807;28;20030;-72
2024/02/25 08:50:14;;;;;;;4.63;1.15;;;;;;;18.26;44.70;99996.16;5000582;28;20052;-71
2024/02/25 08:52:40;;;;;;;6.57;1.30;;;;;;;18.37;44.96;100011.81;4982849;28;20407;-71
2024/02/25 08:55:06;;;;;;;5.88;1.40;;;;;;;18.33;44.81;100004.34;4999775;28;20040;-72
2024/02/25 08:57:32;;;;;;;4.10;1.15;;;;;;;18.37;44.86;100008.34;4982658;28;20117;-71
2024/02/25 08:59:57;;;;;;;3.17;1.10;;;;;;;18.37;44.72;100016.25;4999949;28;20117;-70
2024/02/25 09:02:22;;;;;;;4.25;1.23;;;;;;;18.36;44.93;100012.78;4998008;28;20041;-70
2024/02/25 09:04:50;;;;;;;5.32;1.13;;;;;;;18.36;44.63;100017.22;4999839;28;20088;-71
2024/02/25 09:07:17;;;;;;;3.00;1.20;;;;;;;18.38;44.78;100018.75;5000106;28;20065;-71
2024/02/25 09:09:42;;;;;;;4.43;1.25;;;;;;;18.38;44.83;100024.03;4999143;28;20117;-72
2024/02/25 09:12:07;;;;;;;4.75;1.25;;;;;;;18.39;45.08;100020.41;4998372;28;20429;-71
2024/02/25 09:14:33;;;;;;;5.03;1.42;;;;;;;18.41;45.00;100021.09;4998775;28;20062;-71
2024/02/25 09:16:58;;;;;;;4.68;1.30;;;;;;;18.24;44.71;99998.94;4998236;28;20132;-71
2024/02/25 09:19:23;;;;;;;4.38;1.30;;;;;;;18.36;44.88;100007.53;5000236;28;20067;-71
2024/02/25 09:21:48;;;;;;;3.28;1.20;;;;;;;18.37;44.95;100013.63;4998665;28;20041;-71
2024/02/25 09:24:17;;;;;;;5.45;1.30;;;;;;;18.38;44.89;100015.28;5000495;28;20161;-71
2024/02/25 09:26:45;;;;;;;4.25;1.02;;;;;;;18.41;45.01;100029.00;4999395;28;20601;-72
2024/02/25 09:29:11;;;;;;;4.63;1.40;;;;;;;18.34;45.19;100004.22;4999262;28;20045;-71
2024/02/25 09:31:36;;;;;;;3.60;1.10;;;;;;;18.45;45.14;100024.25;5000052;28;20037;-71
2024/02/25 09:34:04;;;;;;;3.40;1.10;;;;;;;18.34;45.12;100004.22;4999180;28;20034;-72
2024/02/25 09:36:29;;;;;;;4.68;1.30;;;;;;;18.40;45.04;100016.78;4981166;28;20064;-72
2024/02/25 09:38:55;;;;;;;3.63;0.90;;;;;;;18.39;45.17;100019.56;4997624;28;20462;-71
2024/02/25 09:41:37;;;;;;;3.92;1.10;;;;;;;18.39;44.97;100017.78;4999323;28;20069;-71
2024/02/25 09:44:03;;;;;;;3.30;1.05;;;;;;;18.33;45.26;100002.53;4998782;28;20120;-72
2024/02/25 09:46:32;;;;;;;2.92;1.00;;;;;;;18.33;45.20;100014.91;4999609;28;20033;-72
2024/02/25 09:48:58;;;;;;;4.45;1.10;;;;;;;18.42;45.22;100025.41;4999141;28;20404;-71
2024/02/25 09:51:24;;;;;;;4.03;1.05;;;;;;;18.39;45.09;100023.06;4998682;28;20036;-71
2024/02/25 09:53:52;;;;;;;3.53;0.98;;;;;;;18.29;45.21;100004.63;4999351;28;20033;-71
2024/02/25 09:56:18;;;;;;;4.47;1.05;;;;;;;18.39;45.21;100011.66;4998180;28;20061;-71
2024/02/25 09:58:44;;;;;;;2.85;0.93;;;;;;;18.32;44.95;100003.50;4997021;28;20403;-71
2024/02/25 10:01:09;;;;;;;3.28;0.82;;;;;;;18.32;45.07;100014.06;4999228;28;20034;-71
2024/02/25 10:03:37;;;;;;;5.63;1.02;;;;;;;18.21;44.81;99979.97;4997188;28;20034;-72
2024/02/25 10:06:02;;;;;;;2.40;0.90;;;;;;;18.36;44.85;100015.44;4997873;28;20038;-71
2024/02/25 10:08:28;;;;;;;2.90;0.90;;;;;;;18.38;44.84;100020.56;4998488;28;20376;-71
2024/02/25 10:10:53;;;;;;;2.95;1.17;;;;;;;18.29;44.68;100007.28;4998170;28;20116;-72
2024/02/25 10:13:18;;;;;;;4.93;1.38;;;;;;;18.27;44.85;99997.84;4998240;28;20044;-71
2024/02/25 10:15:44;;;;;;;2.30;0.70;;;;;;;18.37;44.56;100011.81;4997763;28;20034;-71
2024/02/25 10:18:11;;;;;;;3.15;0.93;;;;;;;18.21;44.49;99993.97;5001882;28;20076;-72
2024/02/25 10:20:36;;;;;;;1.95;0.77;;;;;;;18.28;44.60;100010.88;5005327;28;20046;-71
2024/02/25 10:23:06;;;;;;;3.13;0.98;;;;;;;18.36;44.67;100012.78;5003936;28;20038;-72
2024/02/25 10:25:31;;;;;;;2.47;0.95;;;;;;;18.33;44.38;100001.72;5004288;28;20057;-72
2024/02/25 10:28:11;;;;;;;3.05;0.85;;;;;;;18.38;44.59;100005.56;5005367;28;20030;-71
2024/02/25 10:30:36;;;;;;;4.53;1.08;;;;;;;18.36;44.41;100006.66;5005050;28;20162;-72
2024/02/25 10:33:13;;;;;;;3.63;0.93;;;;;;;18.26;44.27;99999.66;5004654;28;20030;-71
2024/02/25 10:35:38;;;;;;;2.78;0.95;;;;;;;18.20;44.43;99991.47;5004540;28;20121;-72
2024/02/25 10:38:06;;;;;;;1.88;0.70;;;;;;;18.19;44.15;99984.56;5003953;28;20114;-71
2024/02/25 10:40:32;;;;;;;2.70;0.85;;;;;;;18.27;44.50;100000.47;4987080;28;20432;-71
2024/02/25 10:42:57;;;;;;;2.92;1.00;;;;;;;18.37;44.21;100016.25;5004902;28;20508;-71
2024/02/25 10:45:23;;;;;;;2.42;0.80;;;;;;;18.23;44.27;99993.81;4988185;28;20038;-71
2024/02/25 10:47:52;;;;;;;3.25;1.00;;;;;;;18.36;44.23;100018.06;5004371;28;20050;-71
2024/02/25 10:50:20;;;;;;;2.72;0.93;;;;;;;18.24;44.27;100006.03;5005734;28;20040;-72
2024/02/25 10:52:46;;;;;;;2.55;0.90;;;;;;;18.34;44.20;100014.75;4987574;28;20372;-70
2024/02/25 10:55:14;;;;;;;2.10;0.80;;;;;;;18.34;44.31;100008.63;5004298;28;20033;-70
2024/02/25 10:57:41;;;;;;;1.48;0.60;;;;;;;18.30;44.00;100001.00;5005534;28;20142;-72
2024/02/25 11:00:07;;;;;;;1.83;0.70;;;;;;;18.35;44.14;100016.41;4986880;28;20041;-72
2024/02/25 11:02:34;;;;;;;1.77;0.70;;;;;;;18.26;44.09;99996.16;5003991;28;20156;-72
2024/02/25 11:04:59;;;;;;;2.45;0.90;;;;;;;18.31;44.36;100002.69;5004493;28;20852;-71
2024/02/25 11:07:25;;;;;;;2.75;0.90;;;;;;;18.30;44.27;100002.81;4987073;28;20111;-72
2024/02/25 11:09:50;;;;;;;1.95;0.70;;;;;;;18.37;44.06;100011.81;5002374;28;20416;-72
2024/02/25 11:12:24;;;;;;;2.40;0.90;;;;;;;18.25;43.98;99989.25;4987644;28;20033;-71
2024/02/25 11:15:02;;;;;;;2.22;0.80;;;;;;;18.38;44.26;100013.47;5003279;28;20041;-72
2024/02/25 11:17:30;;;;;;;2.00;0.68;;;;;;;18.23;44.25;99991.19;4987315;28;20184;-71
2024/02/25 11:20:07;;;;;;;5.38;0.95;;;;;;;18.30;44.09;100008.09;5005360;28;20064;-71
2024/02/25 11:22:44;;;;;;;2.03;0.82;;;;;;;18.35;44.14;100008.47;5004393;28;20495;-72
2024/02/25 11:25:27;;;;;;;2.58;0.68;;;;;;;18.26;44.21;99993.53;5004425;28;20056;-72